sensor_id;sensor_type;location;lat;lon;timestamp;temperature;humidity
55036;DHT22;40936;53.008;6.556;2023-06-22T00:00:59;18.20;1.00
55036;DHT22;40936;53.008;6.556;2023-06-22T00:03:26;18.10;1.00
55036;DHT22;40936;53.008;6.556;2023-06-22T00:05:52;18.10;1.00
55036;DHT22;40936;53.008;6.556;2023-06-22T00:08:19;18.00;1.00
55036;DHT22;40936;53.008;6.556;2023-06-22T00:10:45;18.00;1.00
55036;DHT22;40936;53.008;6.556;2023-06-22T00:13:12;17.90;1.00
55036;DHT22;40936;53.008;6.556;2023-06-22T00:15:39;17.90;1.00
55036;DHT22;40936;53.008;6.556;2023-06-22T00:18:10;17.80;1.00
55036;DHT22;40936;53.008;6.556;2023-06-22T00:20:36;17.80;1.00
55036;DHT22;40936;53.008;6.556;2023-06-22T00:23:07;17.70;1.00
55036;DHT22;40936;53.008;6.556;2023-06-22T00:25:40;17.70;1.00
55036;DHT22;40936;53.008;6.556;2023-06-22T00:28:06;17.60;1.00
55036;DHT22;40936;53.008;6.556;2023-06-22T00:30:33;17.60;1.00
55036;DHT22;40936;53.008;6.556;2023-06-22T00:32:59;17.60;1.00
55036;DHT22;40936;53.008;6.556;2023-06-22T00:35:26;17.50;1.00
55036;DHT22;40936;53.008;6.556;2023-06-22T00:37:56;17.50;1.00
55036;DHT22;40936;53.008;6.556;2023-06-22T00:40:29;17.50;1.00
55036;DHT22;40936;53.008;6.556;2023-06-22T00:42:56;17.40;1.00
55036;DHT22;40936;53.008;6.556;2023-06-22T00:45:23;17.40;1.00
55036;DHT22;40936;53.008;6.556;2023-06-22T00:47:51;17.40;1.00
55036;DHT22;40936;53.008;6.556;2023-06-22T00:50:20;17.40;1.00
55036;DHT22;40936;53.008;6.556;2023-06-22T00:52:56;17.30;1.00
55036;DHT22;40936;53.008;6.556;2023-06-22T00:55:23;17.30;1.00
55036;DHT22;40936;53.008;6.556;2023-06-22T00:57:49;17.30;1.00
55036;DHT22;40936;53.008;6.556;2023-06-22T01:00:16;17.20;1.00
55036;DHT22;40936;53.008;6.556;2023-06-22T01:02:46;17.20;1.00
55036;DHT22;40936;53.008;6.556;2023-06-22T01:05:13;17.20;1.00
55036;DHT22;40936;53.008;6.556;2023-06-22T01:07:45;17.10;1.00
55036;DHT22;40936;53.008;6.556;2023-06-22T01:13:18;17.10;1.00
55036;DHT22;40936;53.008;6.556;2023-06-22T01:15:53;17.10;1.00
55036;DHT22;40936;53.008;6.556;2023-06-22T01:18:22;17.00;1.00
55036;DHT22;40936;53.008;6.556;2023-06-22T01:20:53;17.00;1.00
55036;DHT22;40936;53.008;6.556;2023-06-22T01:29:06;16.90;1.00
55036;DHT22;40936;53.008;6.556;2023-06-22T01:31:34;16.50;1.00
55036;DHT22;40936;53.008;6.556;2023-06-22T01:34:03;16.90;1.00
55036;DHT22;40936;53.008;6.556;2023-06-22T01:36:31;16.80;1.00
55036;DHT22;40936;53.008;6.556;2023-06-22T01:38:58;16.80;1.00
55036;DHT22;40936;53.008;6.556;2023-06-22T01:41:29;16.70;1.00
55036;DHT22;40936;53.008;6.556;2023-06-22T01:43:56;16.70;1.00
55036;DHT22;40936;53.008;6.556;2023-06-22T01:46:22;16.70;1.00
55036;DHT22;40936;53.008;6.556;2023-06-22T01:48:49;16.70;1.00
55036;DHT22;40936;53.008;6.556;2023-06-22T01:51:15;16.60;1.00
55036;DHT22;40936;53.008;6.556;2023-06-22T01:53:41;16.60;1.00
55036;DHT22;40936;53.008;6.556;2023-06-22T01:56:08;16.60;1.00
55036;DHT22;40936;53.008;6.556;2023-06-22T01:58:38;16.60;1.00
55036;DHT22;40936;53.008;6.556;2023-06-22T02:01:11;16.50;1.00
55036;DHT22;40936;53.008;6.556;2023-06-22T02:03:42;16.50;1.00
55036;DHT22;40936;53.008;6.556;2023-06-22T02:06:16;16.50;1.00
55036;DHT22;40936;53.008;6.556;2023-06-22T02:08:51;16.40;1.00
55036;DHT22;40936;53.008;6.556;2023-06-22T02:11:20;16.40;1.00
55036;DHT22;40936;53.008;6.556;2023-06-22T02:13:47;16.40;1.00
55036;DHT22;40936;53.008;6.556;2023-06-22T02:16:14;16.30;1.00
55036;DHT22;40936;53.008;6.556;2023-06-22T02:18:48;16.30;1.00
55036;DHT22;40936;53.008;6.556;2023-06-22T02:21:20;16.30;1.00
55036;DHT22;40936;53.008;6.556;2023-06-22T02:23:46;16.30;1.00
55036;DHT22;40936;53.008;6.556;2023-06-22T02:26:12;16.30;1.00
55036;DHT22;40936;53.008;6.556;2023-06-22T02:28:38;16.30;1.00
55036;DHT22;40936;53.008;6.556;2023-06-22T02:31:04;16.20;1.00
55036;DHT22;40936;53.008;6.556;2023-06-22T02:33:30;16.20;1.00
55036;DHT22;40936;53.008;6.556;2023-06-22T02:35:56;16.20;1.00
55036;DHT22;40936;53.008;6.556;2023-06-22T02:38:21;16.20;1.00
55036;DHT22;40936;53.008;6.556;2023-06-22T02:40:50;16.10;1.00
55036;DHT22;40936;53.008;6.556;2023-06-22T02:43:16;16.10;1.00
55036;DHT22;40936;53.008;6.556;2023-06-22T02:45:42;16.10;1.00
55036;DHT22;40936;53.008;6.556;2023-06-22T02:48:08;16.10;1.00
55036;DHT22;40936;53.008;6.556;2023-06-22T02:50:33;16.00;1.00
55036;DHT22;40936;53.008;6.556;2023-06-22T02:52:59;16.00;1.00
55036;DHT22;40936;53.008;6.556;2023-06-22T02:55:25;16.00;1.50
55036;DHT22;40936;53.008;6.556;2023-06-22T02:57:50;16.00;3.20
55036;DHT22;40936;53.008;6.556;2023-06-22T03:00:18;15.90;6.70
55036;DHT22;40936;53.008;6.556;2023-06-22T03:02:45;15.90;14.10
55036;DHT22;40936;53.008;6.556;2023-06-22T03:05:12;15.80;15.80
55036;DHT22;40936;53.008;6.556;2023-06-22T03:07:42;15.80;18.90
55036;DHT22;40936;53.008;6.556;2023-06-22T03:10:09;15.80;33.40
55036;DHT22;40936;53.008;6.556;2023-06-22T03:12:36;15.80;36.10
55036;DHT22;40936;53.008;6.556;2023-06-22T03:15:06;15.80;45.20
55036;DHT22;40936;53.008;6.556;2023-06-22T03:17:33;15.70;49.00
55036;DHT22;40936;53.008;6.556;2023-06-22T03:19:59;15.80;58.30
55036;DHT22;40936;53.008;6.556;2023-06-22T03:22:25;15.80;56.90
55036;DHT22;40936;53.008;6.556;2023-06-22T03:24:51;15.80;59.40
55036;DHT22;40936;53.008;6.556;2023-06-22T03:27:16;15.80;80.90
55036;DHT22;40936;53.008;6.556;2023-06-22T03:29:43;15.80;94.50
55036;DHT22;40936;53.008;6.556;2023-06-22T03:32:10;15.80;94.70
55036;DHT22;40936;53.008;6.556;2023-06-22T03:34:35;15.80;94.40
55036;DHT22;40936;53.008;6.556;2023-06-22T03:37:01;15.80;98.00
55036;DHT22;40936;53.008;6.556;2023-06-22T03:39:28;15.80;98.80
55036;DHT22;40936;53.008;6.556;2023-06-22T03:41:54;15.70;97.40
55036;DHT22;40936;53.008;6.556;2023-06-22T03:44:19;15.70;97.50
55036;DHT22;40936;53.008;6.556;2023-06-22T03:46:45;15.70;97.40
55036;DHT22;40936;53.008;6.556;2023-06-22T03:49:11;15.70;99.90
55036;DHT22;40936;53.008;6.556;2023-06-22T03:51:37;15.70;99.90
55036;DHT22;40936;53.008;6.556;2023-06-22T03:54:02;15.70;99.90
55036;DHT22;40936;53.008;6.556;2023-06-22T03:56:28;15.70;99.90
55036;DHT22;40936;53.008;6.556;2023-06-22T03:58:54;15.70;99.90
55036;DHT22;40936;53.008;6.556;2023-06-22T04:01:19;15.70;99.90
55036;DHT22;40936;53.008;6.556;2023-06-22T04:03:45;15.80;99.90
55036;DHT22;40936;53.008;6.556;2023-06-22T04:06:13;15.80;99.90
55036;DHT22;40936;53.008;6.556;2023-06-22T04:08:39;15.80;99.90
55036;DHT22;40936;53.008;6.556;2023-06-22T04:11:04;15.80;99.90
55036;DHT22;40936;53.008;6.556;2023-06-22T04:13:30;15.80;99.90
55036;DHT22;40936;53.008;6.556;2023-06-22T04:15:56;15.80;99.90
55036;DHT22;40936;53.008;6.556;2023-06-22T04:18:22;15.90;99.90
55036;DHT22;40936;53.008;6.556;2023-06-22T04:20:47;15.90;99.90
55036;DHT22;40936;53.008;6.556;2023-06-22T04:23:13;15.90;99.90
55036;DHT22;40936;53.008;6.556;2023-06-22T04:25:39;15.90;99.90
55036;DHT22;40936;53.008;6.556;2023-06-22T04:28:05;15.90;99.90
55036;DHT22;40936;53.008;6.556;2023-06-22T04:30:37;16.00;99.90
55036;DHT22;40936;53.008;6.556;2023-06-22T04:33:15;16.00;99.90
55036;DHT22;40936;53.008;6.556;2023-06-22T04:35:41;16.10;99.90
55036;DHT22;40936;53.008;6.556;2023-06-22T04:38:07;16.10;99.90
55036;DHT22;40936;53.008;6.556;2023-06-22T04:40:33;16.10;99.90
55036;DHT22;40936;53.008;6.556;2023-06-22T04:42:58;16.10;99.90
55036;DHT22;40936;53.008;6.556;2023-06-22T04:45:28;16.20;99.90
55036;DHT22;40936;53.008;6.556;2023-06-22T04:47:54;16.20;99.90
55036;DHT22;40936;53.008;6.556;2023-06-22T04:50:20;16.30;99.90
55036;DHT22;40936;53.008;6.556;2023-06-22T04:52:47;16.40;99.90
55036;DHT22;40936;53.008;6.556;2023-06-22T04:55:14;16.40;99.90
55036;DHT22;40936;53.008;6.556;2023-06-22T04:57:47;16.50;99.90
55036;DHT22;40936;53.008;6.556;2023-06-22T05:00:23;16.60;99.90
55036;DHT22;40936;53.008;6.556;2023-06-22T05:02:49;16.60;99.90
55036;DHT22;40936;53.008;6.556;2023-06-22T05:05:15;16.70;99.90
55036;DHT22;40936;53.008;6.556;2023-06-22T05:07:45;16.70;99.90
55036;DHT22;40936;53.008;6.556;2023-06-22T05:10:14;16.80;99.90
55036;DHT22;40936;53.008;6.556;2023-06-22T05:12:40;16.80;99.90
55036;DHT22;40936;53.008;6.556;2023-06-22T05:15:08;16.90;99.90
55036;DHT22;40936;53.008;6.556;2023-06-22T05:17:34;16.90;99.90
55036;DHT22;40936;53.008;6.556;2023-06-22T05:20:01;17.00;99.90
55036;DHT22;40936;53.008;6.556;2023-06-22T05:22:27;17.00;99.90
55036;DHT22;40936;53.008;6.556;2023-06-22T05:24:53;17.10;99.90
55036;DHT22;40936;53.008;6.556;2023-06-22T05:27:19;17.20;99.90
55036;DHT22;40936;53.008;6.556;2023-06-22T05:29:44;17.30;99.90
55036;DHT22;40936;53.008;6.556;2023-06-22T05:32:10;17.30;99.90
55036;DHT22;40936;53.008;6.556;2023-06-22T05:34:36;17.50;99.90
55036;DHT22;40936;53.008;6.556;2023-06-22T05:37:02;17.60;99.90
55036;DHT22;40936;53.008;6.556;2023-06-22T05:39:28;17.70;99.90
55036;DHT22;40936;53.008;6.556;2023-06-22T05:41:54;17.90;99.90
55036;DHT22;40936;53.008;6.556;2023-06-22T05:44:19;18.10;99.90
55036;DHT22;40936;53.008;6.556;2023-06-22T05:46:45;18.20;99.90
55036;DHT22;40936;53.008;6.556;2023-06-22T05:49:14;18.30;99.90
55036;DHT22;40936;53.008;6.556;2023-06-22T05:51:41;18.50;99.90
55036;DHT22;40936;53.008;6.556;2023-06-22T05:54:06;18.60;99.90
55036;DHT22;40936;53.008;6.556;2023-06-22T05:56:33;18.70;99.90
55036;DHT22;40936;53.008;6.556;2023-06-22T05:58:59;18.70;99.90
55036;DHT22;40936;53.008;6.556;2023-06-22T06:01:24;18.90;98.20
55036;DHT22;40936;53.008;6.556;2023-06-22T06:03:51;19.00;88.70
55036;DHT22;40936;53.008;6.556;2023-06-22T06:06:18;19.10;90.90
55036;DHT22;40936;53.008;6.556;2023-06-22T06:08:46;19.20;67.90
55036;DHT22;40936;53.008;6.556;2023-06-22T06:11:12;19.20;60.20
55036;DHT22;40936;53.008;6.556;2023-06-22T06:13:38;19.30;33.80
55036;DHT22;40936;53.008;6.556;2023-06-22T06:16:03;19.40;38.80
55036;DHT22;40936;53.008;6.556;2023-06-22T06:18:29;19.50;1.00
55036;DHT22;40936;53.008;6.556;2023-06-22T06:20:55;19.60;1.10
55036;DHT22;40936;53.008;6.556;2023-06-22T06:23:22;19.70;1.00
55036;DHT22;40936;53.008;6.556;2023-06-22T06:25:47;19.80;1.00
55036;DHT22;40936;53.008;6.556;2023-06-22T06:28:13;19.80;1.00
55036;DHT22;40936;53.008;6.556;2023-06-22T06:30:39;19.90;1.00
55036;DHT22;40936;53.008;6.556;2023-06-22T06:33:04;20.00;1.00
55036;DHT22;40936;53.008;6.556;2023-06-22T06:35:34;20.20;1.00
55036;DHT22;40936;53.008;6.556;2023-06-22T06:38:00;20.30;1.00
55036;DHT22;40936;53.008;6.556;2023-06-22T06:40:26;20.40;1.00
55036;DHT22;40936;53.008;6.556;2023-06-22T06:42:51;20.60;1.00
55036;DHT22;40936;53.008;6.556;2023-06-22T06:45:21;20.80;1.00
55036;DHT22;40936;53.008;6.556;2023-06-22T06:47:48;21.00;1.00
55036;DHT22;40936;53.008;6.556;2023-06-22T06:50:14;21.20;1.00
55036;DHT22;40936;53.008;6.556;2023-06-22T06:52:40;21.50;1.00
55036;DHT22;40936;53.008;6.556;2023-06-22T06:55:07;21.60;99.90
55036;DHT22;40936;53.008;6.556;2023-06-22T06:57:35;21.90;99.90
55036;DHT22;40936;53.008;6.556;2023-06-22T07:00:04;22.10;99.90
55036;DHT22;40936;53.008;6.556;2023-06-22T07:02:35;22.30;99.90
55036;DHT22;40936;53.008;6.556;2023-06-22T07:05:00;22.50;99.90
55036;DHT22;40936;53.008;6.556;2023-06-22T07:07:29;22.70;99.90
55036;DHT22;40936;53.008;6.556;2023-06-22T07:09:54;23.00;99.90
55036;DHT22;40936;53.008;6.556;2023-06-22T07:12:20;23.20;99.90
55036;DHT22;40936;53.008;6.556;2023-06-22T07:14:46;23.60;99.90
55036;DHT22;40936;53.008;6.556;2023-06-22T07:17:12;23.70;99.90
55036;DHT22;40936;53.008;6.556;2023-06-22T07:19:38;24.10;99.90
55036;DHT22;40936;53.008;6.556;2023-06-22T07:22:04;24.40;99.90
55036;DHT22;40936;53.008;6.556;2023-06-22T07:24:30;24.70;99.90
55036;DHT22;40936;53.008;6.556;2023-06-22T07:26:55;24.90;99.90
55036;DHT22;40936;53.008;6.556;2023-06-22T07:29:24;25.20;99.90
55036;DHT22;40936;53.008;6.556;2023-06-22T07:31:50;25.50;99.90
55036;DHT22;40936;53.008;6.556;2023-06-22T07:34:22;25.60;99.90
55036;DHT22;40936;53.008;6.556;2023-06-22T07:36:48;26.10;99.90
55036;DHT22;40936;53.008;6.556;2023-06-22T07:39:13;26.60;99.90
55036;DHT22;40936;53.008;6.556;2023-06-22T07:41:40;27.20;99.90
55036;DHT22;40936;53.008;6.556;2023-06-22T07:44:07;28.00;99.90
55036;DHT22;40936;53.008;6.556;2023-06-22T07:46:33;28.60;99.90
55036;DHT22;40936;53.008;6.556;2023-06-22T07:48:59;29.50;99.90
55036;DHT22;40936;53.008;6.556;2023-06-22T07:51:26;30.70;99.90
55036;DHT22;40936;53.008;6.556;2023-06-22T07:53:52;31.50;99.90
55036;DHT22;40936;53.008;6.556;2023-06-22T07:56:18;32.10;99.90
55036;DHT22;40936;53.008;6.556;2023-06-22T07:58:47;32.70;99.90
55036;DHT22;40936;53.008;6.556;2023-06-22T08:01:16;33.20;99.90
55036;DHT22;40936;53.008;6.556;2023-06-22T08:03:42;33.50;99.90
55036;DHT22;40936;53.008;6.556;2023-06-22T08:06:08;33.90;99.90
55036;DHT22;40936;53.008;6.556;2023-06-22T08:08:35;34.10;99.90
55036;DHT22;40936;53.008;6.556;2023-06-22T08:11:01;34.20;99.90
55036;DHT22;40936;53.008;6.556;2023-06-22T08:13:30;33.80;99.90
55036;DHT22;40936;53.008;6.556;2023-06-22T08:15:56;34.20;99.90
55036;DHT22;40936;53.008;6.556;2023-06-22T08:18:21;34.60;99.90
55036;DHT22;40936;53.008;6.556;2023-06-22T08:20:47;34.90;99.90
55036;DHT22;40936;53.008;6.556;2023-06-22T08:23:13;35.50;99.90
55036;DHT22;40936;53.008;6.556;2023-06-22T08:25:38;35.80;99.90
55036;DHT22;40936;53.008;6.556;2023-06-22T08:28:04;36.00;99.90
55036;DHT22;40936;53.008;6.556;2023-06-22T08:30:31;36.40;99.90
55036;DHT22;40936;53.008;6.556;2023-06-22T08:32:56;36.80;99.90
55036;DHT22;40936;53.008;6.556;2023-06-22T08:35:24;37.20;99.90
55036;DHT22;40936;53.008;6.556;2023-06-22T08:37:49;37.40;99.90
55036;DHT22;40936;53.008;6.556;2023-06-22T08:40:18;37.90;99.90
55036;DHT22;40936;53.008;6.556;2023-06-22T08:42:45;37.40;99.90
55036;DHT22;40936;53.008;6.556;2023-06-22T08:45:11;37.60;99.90
55036;DHT22;40936;53.008;6.556;2023-06-22T08:47:37;37.60;99.90
55036;DHT22;40936;53.008;6.556;2023-06-22T08:50:06;37.90;99.90
55036;DHT22;40936;53.008;6.556;2023-06-22T08:52:33;38.30;99.90
55036;DHT22;40936;53.008;6.556;2023-06-22T08:54:59;38.40;99.90
55036;DHT22;40936;53.008;6.556;2023-06-22T08:57:24;38.80;99.90
55036;DHT22;40936;53.008;6.556;2023-06-22T08:59:50;38.40;99.90
55036;DHT22;40936;53.008;6.556;2023-06-22T09:02:18;38.80;99.90
55036;DHT22;40936;53.008;6.556;2023-06-22T09:04:45;39.10;99.90
55036;DHT22;40936;53.008;6.556;2023-06-22T09:07:11;39.10;99.90
55036;DHT22;40936;53.008;6.556;2023-06-22T09:09:39;39.20;99.90
55036;DHT22;40936;53.008;6.556;2023-06-22T09:12:05;39.30;99.90
55036;DHT22;40936;53.008;6.556;2023-06-22T09:14:31;39.50;99.90
55036;DHT22;40936;53.008;6.556;2023-06-22T09:16:59;39.60;99.90
55036;DHT22;40936;53.008;6.556;2023-06-22T09:19:28;39.60;99.90
55036;DHT22;40936;53.008;6.556;2023-06-22T09:21:54;39.70;99.90
55036;DHT22;40936;53.008;6.556;2023-06-22T09:24:22;39.40;99.90
55036;DHT22;40936;53.008;6.556;2023-06-22T09:26:48;39.80;99.90
55036;DHT22;40936;53.008;6.556;2023-06-22T09:29:16;40.10;99.90
55036;DHT22;40936;53.008;6.556;2023-06-22T09:31:41;39.90;99.90
55036;DHT22;40936;53.008;6.556;2023-06-22T09:34:09;40.30;99.90
55036;DHT22;40936;53.008;6.556;2023-06-22T09:36:35;40.80;99.90
55036;DHT22;40936;53.008;6.556;2023-06-22T09:39:02;40.80;99.90
55036;DHT22;40936;53.008;6.556;2023-06-22T09:41:31;41.20;99.90
55036;DHT22;40936;53.008;6.556;2023-06-22T09:43:57;41.10;99.90
55036;DHT22;40936;53.008;6.556;2023-06-22T09:46:25;41.30;99.90
55036;DHT22;40936;53.008;6.556;2023-06-22T09:49:00;41.40;99.90
55036;DHT22;40936;53.008;6.556;2023-06-22T09:51:26;41.60;99.90
55036;DHT22;40936;53.008;6.556;2023-06-22T09:53:52;41.50;99.90
55036;DHT22;40936;53.008;6.556;2023-06-22T09:56:21;41.40;99.90
55036;DHT22;40936;53.008;6.556;2023-06-22T09:58:50;41.30;99.90
55036;DHT22;40936;53.008;6.556;2023-06-22T10:01:20;41.20;99.90
55036;DHT22;40936;53.008;6.556;2023-06-22T10:03:47;41.50;99.90
55036;DHT22;40936;53.008;6.556;2023-06-22T10:06:15;41.20;99.90
55036;DHT22;40936;53.008;6.556;2023-06-22T10:08:47;41.30;99.90
55036;DHT22;40936;53.008;6.556;2023-06-22T10:11:20;40.90;99.90
55036;DHT22;40936;53.008;6.556;2023-06-22T10:13:51;41.00;99.90
55036;DHT22;40936;53.008;6.556;2023-06-22T10:16:17;41.40;99.90
55036;DHT22;40936;53.008;6.556;2023-06-22T10:18:45;41.50;99.90
55036;DHT22;40936;53.008;6.556;2023-06-22T10:21:13;41.20;99.90
55036;DHT22;40936;53.008;6.556;2023-06-22T10:23:39;40.40;99.90
55036;DHT22;40936;53.008;6.556;2023-06-22T10:26:13;39.70;99.90
55036;DHT22;40936;53.008;6.556;2023-06-22T10:28:48;39.30;99.90
55036;DHT22;40936;53.008;6.556;2023-06-22T10:31:21;38.90;99.90
55036;DHT22;40936;53.008;6.556;2023-06-22T10:33:49;39.70;99.90
55036;DHT22;40936;53.008;6.556;2023-06-22T10:36:19;40.30;99.90
55036;DHT22;40936;53.008;6.556;2023-06-22T10:38:45;40.90;99.90
55036;DHT22;40936;53.008;6.556;2023-06-22T10:41:17;40.80;99.90
55036;DHT22;40936;53.008;6.556;2023-06-22T10:43:50;39.90;99.90
55036;DHT22;40936;53.008;6.556;2023-06-22T10:46:18;40.10;99.90
55036;DHT22;40936;53.008;6.556;2023-06-22T10:48:49;40.60;99.90
55036;DHT22;40936;53.008;6.556;2023-06-22T10:51:17;41.10;99.90
55036;DHT22;40936;53.008;6.556;2023-06-22T10:53:43;41.30;99.90
55036;DHT22;40936;53.008;6.556;2023-06-22T10:56:11;41.40;99.90
55036;DHT22;40936;53.008;6.556;2023-06-22T10:58:37;41.90;99.90
55036;DHT22;40936;53.008;6.556;2023-06-22T11:01:12;42.10;99.90
55036;DHT22;40936;53.008;6.556;2023-06-22T11:03:40;42.20;99.90
55036;DHT22;40936;53.008;6.556;2023-06-22T11:06:08;42.00;99.90
55036;DHT22;40936;53.008;6.556;2023-06-22T11:08:37;41.30;99.90
55036;DHT22;40936;53.008;6.556;2023-06-22T11:11:02;40.80;99.90
55036;DHT22;40936;53.008;6.556;2023-06-22T11:13:28;40.10;99.90
55036;DHT22;40936;53.008;6.556;2023-06-22T11:15:56;39.70;99.90
55036;DHT22;40936;53.008;6.556;2023-06-22T11:18:25;39.20;99.90
55036;DHT22;40936;53.008;6.556;2023-06-22T11:20:51;38.90;99.90
55036;DHT22;40936;53.008;6.556;2023-06-22T11:23:25;38.70;99.90
55036;DHT22;40936;53.008;6.556;2023-06-22T11:25:53;38.20;99.90
55036;DHT22;40936;53.008;6.556;2023-06-22T11:28:19;37.60;99.90
55036;DHT22;40936;53.008;6.556;2023-06-22T11:30:47;36.80;99.90
55036;DHT22;40936;53.008;6.556;2023-06-22T11:33:15;36.30;99.90
55036;DHT22;40936;53.008;6.556;2023-06-22T11:35:41;35.70;99.90
55036;DHT22;40936;53.008;6.556;2023-06-22T11:38:07;35.40;99.90
55036;DHT22;40936;53.008;6.556;2023-06-22T11:40:33;35.10;99.90
55036;DHT22;40936;53.008;6.556;2023-06-22T11:42:59;34.90;99.90
55036;DHT22;40936;53.008;6.556;2023-06-22T11:45:24;34.70;99.90
55036;DHT22;40936;53.008;6.556;2023-06-22T11:47:50;34.70;99.90
55036;DHT22;40936;53.008;6.556;2023-06-22T11:50:16;34.20;99.90
55036;DHT22;40936;53.008;6.556;2023-06-22T11:52:42;34.20;99.90
55036;DHT22;40936;53.008;6.556;2023-06-22T11:55:11;34.70;99.90
55036;DHT22;40936;53.008;6.556;2023-06-22T11:57:54;34.50;99.90
55036;DHT22;40936;53.008;6.556;2023-06-22T12:00:30;34.50;99.90
55036;DHT22;40936;53.008;6.556;2023-06-22T12:02:56;34.50;99.90
55036;DHT22;40936;53.008;6.556;2023-06-22T12:05:22;34.50;99.90
55036;DHT22;40936;53.008;6.556;2023-06-22T12:07:55;34.60;99.90
55036;DHT22;40936;53.008;6.556;2023-06-22T12:10:22;34.30;99.90
55036;DHT22;40936;53.008;6.556;2023-06-22T12:12:50;34.10;99.90
55036;DHT22;40936;53.008;6.556;2023-06-22T12:15:16;33.90;99.90
55036;DHT22;40936;53.008;6.556;2023-06-22T12:17:44;33.80;99.90
55036;DHT22;40936;53.008;6.556;2023-06-22T12:20:13;33.60;99.90
55036;DHT22;40936;53.008;6.556;2023-06-22T12:22:42;33.60;99.90
55036;DHT22;40936;53.008;6.556;2023-06-22T12:25:10;33.70;99.90
55036;DHT22;40936;53.008;6.556;2023-06-22T12:27:37;33.60;99.90
55036;DHT22;40936;53.008;6.556;2023-06-22T12:30:06;33.70;99.90
55036;DHT22;40936;53.008;6.556;2023-06-22T12:32:32;33.90;99.90
55036;DHT22;40936;53.008;6.556;2023-06-22T12:35:05;33.80;99.90
55036;DHT22;40936;53.008;6.556;2023-06-22T12:37:42;33.60;99.90
55036;DHT22;40936;53.008;6.556;2023-06-22T12:40:10;33.00;99.90
55036;DHT22;40936;53.008;6.556;2023-06-22T12:42:36;33.30;99.90
55036;DHT22;40936;53.008;6.556;2023-06-22T12:45:03;33.20;99.90
55036;DHT22;40936;53.008;6.556;2023-06-22T12:47:29;33.20;99.90
55036;DHT22;40936;53.008;6.556;2023-06-22T12:49:57;33.20;99.90
55036;DHT22;40936;53.008;6.556;2023-06-22T12:52:23;32.90;99.90
55036;DHT22;40936;53.008;6.556;2023-06-22T12:54:49;32.70;99.90
55036;DHT22;40936;53.008;6.556;2023-06-22T12:57:20;32.60;99.90
55036;DHT22;40936;53.008;6.556;2023-06-22T12:59:46;32.50;99.90
55036;DHT22;40936;53.008;6.556;2023-06-22T13:02:12;32.30;99.90
55036;DHT22;40936;53.008;6.556;2023-06-22T13:04:42;32.10;99.90
55036;DHT22;40936;53.008;6.556;2023-06-22T13:07:11;31.80;99.90
55036;DHT22;40936;53.008;6.556;2023-06-22T13:09:39;31.40;99.90
55036;DHT22;40936;53.008;6.556;2023-06-22T13:12:11;31.30;99.90
55036;DHT22;40936;53.008;6.556;2023-06-22T13:14:39;31.10;99.90
55036;DHT22;40936;53.008;6.556;2023-06-22T13:17:05;30.00;99.90
55036;DHT22;40936;53.008;6.556;2023-06-22T13:19:31;30.50;99.90
55036;DHT22;40936;53.008;6.556;2023-06-22T13:22:00;30.40;99.90
55036;DHT22;40936;53.008;6.556;2023-06-22T13:24:28;30.30;99.90
55036;DHT22;40936;53.008;6.556;2023-06-22T13:26:53;30.10;99.90
55036;DHT22;40936;53.008;6.556;2023-06-22T13:29:20;29.30;99.90
55036;DHT22;40936;53.008;6.556;2023-06-22T13:31:49;29.80;99.90
55036;DHT22;40936;53.008;6.556;2023-06-22T13:34:20;29.60;99.90
55036;DHT22;40936;53.008;6.556;2023-06-22T13:36:45;29.50;99.90
55036;DHT22;40936;53.008;6.556;2023-06-22T13:39:11;29.50;99.90
55036;DHT22;40936;53.008;6.556;2023-06-22T13:41:39;28.90;99.90
55036;DHT22;40936;53.008;6.556;2023-06-22T13:44:05;29.30;99.90
55036;DHT22;40936;53.008;6.556;2023-06-22T13:46:39;29.10;99.90
55036;DHT22;40936;53.008;6.556;2023-06-22T13:49:07;28.70;99.90
55036;DHT22;40936;53.008;6.556;2023-06-22T13:51:33;28.80;99.90
55036;DHT22;40936;53.008;6.556;2023-06-22T13:53:59;28.60;99.90
55036;DHT22;40936;53.008;6.556;2023-06-22T13:56:27;28.50;99.90
55036;DHT22;40936;53.008;6.556;2023-06-22T13:58:53;28.30;99.90
55036;DHT22;40936;53.008;6.556;2023-06-22T14:01:19;28.20;99.90
55036;DHT22;40936;53.008;6.556;2023-06-22T14:03:45;28.00;99.90
55036;DHT22;40936;53.008;6.556;2023-06-22T14:06:13;27.90;99.90
55036;DHT22;40936;53.008;6.556;2023-06-22T14:08:41;27.80;99.90
55036;DHT22;40936;53.008;6.556;2023-06-22T14:11:07;27.70;99.90
55036;DHT22;40936;53.008;6.556;2023-06-22T14:13:33;27.60;99.90
55036;DHT22;40936;53.008;6.556;2023-06-22T14:16:01;27.60;99.90
55036;DHT22;40936;53.008;6.556;2023-06-22T14:18:27;27.50;99.90
55036;DHT22;40936;53.008;6.556;2023-06-22T14:23:25;27.10;99.90
55036;DHT22;40936;53.008;6.556;2023-06-22T14:25:51;27.10;99.90
55036;DHT22;40936;53.008;6.556;2023-06-22T14:28:19;27.10;99.90
55036;DHT22;40936;53.008;6.556;2023-06-22T14:30:45;27.00;99.90
55036;DHT22;40936;53.008;6.556;2023-06-22T14:33:11;26.80;99.90
55036;DHT22;40936;53.008;6.556;2023-06-22T14:35:41;26.70;99.90
55036;DHT22;40936;53.008;6.556;2023-06-22T14:38:06;26.50;99.90
55036;DHT22;40936;53.008;6.556;2023-06-22T14:40:32;26.40;99.90
55036;DHT22;40936;53.008;6.556;2023-06-22T14:42:58;26.20;99.90
55036;DHT22;40936;53.008;6.556;2023-06-22T14:45:24;26.00;99.90
55036;DHT22;40936;53.008;6.556;2023-06-22T14:47:50;26.00;99.90
55036;DHT22;40936;53.008;6.556;2023-06-22T14:50:18;26.00;99.90
55036;DHT22;40936;53.008;6.556;2023-06-22T14:52:47;25.80;99.90
55036;DHT22;40936;53.008;6.556;2023-06-22T14:55:13;25.10;99.90
55036;DHT22;40936;53.008;6.556;2023-06-22T14:57:38;25.70;99.90
55036;DHT22;40936;53.008;6.556;2023-06-22T15:00:07;25.70;99.90
55036;DHT22;40936;53.008;6.556;2023-06-22T15:02:33;25.70;99.90
55036;DHT22;40936;53.008;6.556;2023-06-22T15:04:59;25.70;99.90
55036;DHT22;40936;53.008;6.556;2023-06-22T15:07:24;25.60;99.90
55036;DHT22;40936;53.008;6.556;2023-06-22T15:09:50;25.50;99.90
55036;DHT22;40936;53.008;6.556;2023-06-22T15:12:16;25.30;99.90
55036;DHT22;40936;53.008;6.556;2023-06-22T15:14:42;25.30;99.90
55036;DHT22;40936;53.008;6.556;2023-06-22T15:17:08;25.00;99.90
55036;DHT22;40936;53.008;6.556;2023-06-22T15:19:37;24.80;99.90
55036;DHT22;40936;53.008;6.556;2023-06-22T15:22:07;24.40;99.90
55036;DHT22;40936;53.008;6.556;2023-06-22T15:24:33;24.00;99.90
55036;DHT22;40936;53.008;6.556;2023-06-22T15:27:00;23.50;99.90
55036;DHT22;40936;53.008;6.556;2023-06-22T15:29:26;23.10;99.90
55036;DHT22;40936;53.008;6.556;2023-06-22T15:31:54;22.80;99.90
55036;DHT22;40936;53.008;6.556;2023-06-22T15:34:20;22.60;99.90
55036;DHT22;40936;53.008;6.556;2023-06-22T15:36:45;22.50;99.90
55036;DHT22;40936;53.008;6.556;2023-06-22T15:39:11;22.30;99.90
55036;DHT22;40936;53.008;6.556;2023-06-22T15:41:40;22.10;99.90
55036;DHT22;40936;53.008;6.556;2023-06-22T15:44:07;22.00;99.90
55036;DHT22;40936;53.008;6.556;2023-06-22T15:46:32;21.80;99.90